sensor_id;sensor_type;location;lat;lon;timestamp;temperature;humidity
21849;DHT22;11089;49.852;19.700;2022-11-14T00:00:29;5.10;99.90
21849;DHT22;11089;49.852;19.700;2022-11-14T00:03:30;5.10;99.90
21849;DHT22;11089;49.852;19.700;2022-11-14T00:06:31;5.00;99.90
21849;DHT22;11089;49.852;19.700;2022-11-14T00:09:32;5.10;99.90
21849;DHT22;11089;49.852;19.700;2022-11-14T00:12:33;5.10;99.90
21849;DHT22;11089;49.852;19.700;2022-11-14T00:15:34;5.00;99.90
21849;DHT22;11089;49.852;19.700;2022-11-14T00:18:35;5.00;99.90
21849;DHT22;11089;49.852;19.700;2022-11-14T00:21:35;5.00;99.90
21849;DHT22;11089;49.852;19.700;2022-11-14T00:24:36;5.00;99.90
21849;DHT22;11089;49.852;19.700;2022-11-14T00:27:37;5.00;99.90
21849;DHT22;11089;49.852;19.700;2022-11-14T00:30:38;4.90;99.90
21849;DHT22;11089;49.852;19.700;2022-11-14T00:33:39;5.00;99.90
21849;DHT22;11089;49.852;19.700;2022-11-14T00:36:40;4.90;99.90
21849;DHT22;11089;49.852;19.700;2022-11-14T00:39:41;4.80;99.90
21849;DHT22;11089;49.852;19.700;2022-11-14T00:42:42;4.90;99.90
21849;DHT22;11089;49.852;19.700;2022-11-14T00:45:44;4.90;99.90
21849;DHT22;11089;49.852;19.700;2022-11-14T00:48:45;4.70;99.90
21849;DHT22;11089;49.852;19.700;2022-11-14T00:51:46;4.80;99.90
21849;DHT22;11089;49.852;19.700;2022-11-14T00:54:46;4.80;99.90
21849;DHT22;11089;49.852;19.700;2022-11-14T00:57:47;4.80;99.90
21849;DHT22;11089;49.852;19.700;2022-11-14T01:00:48;4.90;99.90
21849;DHT22;11089;49.852;19.700;2022-11-14T01:03:50;4.80;99.90
21849;DHT22;11089;49.852;19.700;2022-11-14T01:06:51;4.90;99.90
21849;DHT22;11089;49.852;19.700;2022-11-14T01:09:52;4.70;99.90
21849;DHT22;11089;49.852;19.700;2022-11-14T01:12:53;4.40;99.90
21849;DHT22;11089;49.852;19.700;2022-11-14T01:15:54;4.20;99.90
21849;DHT22;11089;49.852;19.700;2022-11-14T01:18:55;4.30;99.90
21849;DHT22;11089;49.852;19.700;2022-11-14T01:21:56;4.40;99.90
21849;DHT22;11089;49.852;19.700;2022-11-14T01:24:57;4.30;99.90
21849;DHT22;11089;49.852;19.700;2022-11-14T01:27:58;4.40;99.90
21849;DHT22;11089;49.852;19.700;2022-11-14T01:31:14;4.40;99.90
21849;DHT22;11089;49.852;19.700;2022-11-14T01:34:16;4.40;99.90
21849;DHT22;11089;49.852;19.700;2022-11-14T01:37:16;4.30;99.90
21849;DHT22;11089;49.852;19.700;2022-11-14T01:40:18;4.10;99.90
21849;DHT22;11089;49.852;19.700;2022-11-14T01:43:21;3.90;99.90
21849;DHT22;11089;49.852;19.700;2022-11-14T01:46:37;3.90;99.90
21849;DHT22;11089;49.852;19.700;2022-11-14T01:49:42;4.10;99.90
21849;DHT22;11089;49.852;19.700;2022-11-14T01:52:45;4.30;99.90
21849;DHT22;11089;49.852;19.700;2022-11-14T01:55:46;4.30;99.90
21849;DHT22;11089;49.852;19.700;2022-11-14T01:59:11;4.20;99.90
21849;DHT22;11089;49.852;19.700;2022-11-14T02:02:20;4.20;99.90
21849;DHT22;11089;49.852;19.700;2022-11-14T02:05:21;4.20;99.90
21849;DHT22;11089;49.852;19.700;2022-11-14T02:08:23;4.20;99.90
21849;DHT22;11089;49.852;19.700;2022-11-14T02:11:28;4.20;99.90
21849;DHT22;11089;49.852;19.700;2022-11-14T02:14:30;4.00;99.90
21849;DHT22;11089;49.852;19.700;2022-11-14T02:17:32;4.00;99.90
21849;DHT22;11089;49.852;19.700;2022-11-14T02:20:36;4.00;99.90
21849;DHT22;11089;49.852;19.700;2022-11-14T02:23:38;4.10;99.90
21849;DHT22;11089;49.852;19.700;2022-11-14T02:26:40;4.10;99.90
21849;DHT22;11089;49.852;19.700;2022-11-14T02:29:41;4.10;99.90
21849;DHT22;11089;49.852;19.700;2022-11-14T02:32:42;4.00;99.90
21849;DHT22;11089;49.852;19.700;2022-11-14T02:35:43;3.90;99.90
21849;DHT22;11089;49.852;19.700;2022-11-14T02:38:44;3.90;99.90
21849;DHT22;11089;49.852;19.700;2022-11-14T02:41:45;4.00;99.90
21849;DHT22;11089;49.852;19.700;2022-11-14T02:44:46;4.00;99.90
21849;DHT22;11089;49.852;19.700;2022-11-14T02:47:47;3.90;99.90
21849;DHT22;11089;49.852;19.700;2022-11-14T02:50:49;3.80;99.90
21849;DHT22;11089;49.852;19.700;2022-11-14T02:53:50;3.80;99.90
21849;DHT22;11089;49.852;19.700;2022-11-14T02:56:51;3.70;99.90
21849;DHT22;11089;49.852;19.700;2022-11-14T02:59:51;3.50;99.90
21849;DHT22;11089;49.852;19.700;2022-11-14T03:02:53;3.40;99.90
21849;DHT22;11089;49.852;19.700;2022-11-14T03:06:01;3.30;99.90
21849;DHT22;11089;49.852;19.700;2022-11-14T03:09:02;3.20;99.90
21849;DHT22;11089;49.852;19.700;2022-11-14T03:12:03;3.40;99.90
21849;DHT22;11089;49.852;19.700;2022-11-14T03:15:06;3.40;99.90
21849;DHT22;11089;49.852;19.700;2022-11-14T03:18:07;3.40;99.90
21849;DHT22;11089;49.852;19.700;2022-11-14T03:21:11;3.40;99.90
21849;DHT22;11089;49.852;19.700;2022-11-14T03:24:12;3.30;99.90
21849;DHT22;11089;49.852;19.700;2022-11-14T03:27:13;3.20;99.90
21849;DHT22;11089;49.852;19.700;2022-11-14T03:30:14;3.40;99.90
21849;DHT22;11089;49.852;19.700;2022-11-14T03:33:15;3.40;99.90
21849;DHT22;11089;49.852;19.700;2022-11-14T03:36:16;3.50;99.90
21849;DHT22;11089;49.852;19.700;2022-11-14T03:39:17;3.40;99.90
21849;DHT22;11089;49.852;19.700;2022-11-14T03:42:18;3.40;99.90
21849;DHT22;11089;49.852;19.700;2022-11-14T03:45:18;3.50;99.90
21849;DHT22;11089;49.852;19.700;2022-11-14T03:48:19;3.50;99.90
21849;DHT22;11089;49.852;19.700;2022-11-14T03:51:20;3.50;99.90
21849;DHT22;11089;49.852;19.700;2022-11-14T03:54:21;3.50;99.90
21849;DHT22;11089;49.852;19.700;2022-11-14T03:57:22;3.50;99.90
21849;DHT22;11089;49.852;19.700;2022-11-14T04:00:23;3.50;99.90
21849;DHT22;11089;49.852;19.700;2022-11-14T04:03:24;3.50;99.90
21849;DHT22;11089;49.852;19.700;2022-11-14T04:06:25;3.30;99.90
21849;DHT22;11089;49.852;19.700;2022-11-14T04:09:26;3.40;99.90
21849;DHT22;11089;49.852;19.700;2022-11-14T04:12:27;3.30;99.90
21849;DHT22;11089;49.852;19.700;2022-11-14T04:15:28;3.30;99.90
21849;DHT22;11089;49.852;19.700;2022-11-14T04:18:29;3.40;99.90
21849;DHT22;11089;49.852;19.700;2022-11-14T04:21:30;3.30;99.90
21849;DHT22;11089;49.852;19.700;2022-11-14T04:24:31;3.40;99.90
21849;DHT22;11089;49.852;19.700;2022-11-14T04:27:32;3.40;99.90
21849;DHT22;11089;49.852;19.700;2022-11-14T04:30:33;3.30;99.90
21849;DHT22;11089;49.852;19.700;2022-11-14T04:33:34;3.40;99.90
21849;DHT22;11089;49.852;19.700;2022-11-14T04:36:35;3.50;99.90
21849;DHT22;11089;49.852;19.700;2022-11-14T04:39:36;3.50;99.90
21849;DHT22;11089;49.852;19.700;2022-11-14T04:42:37;3.50;99.90
21849;DHT22;11089;49.852;19.700;2022-11-14T04:45:38;3.40;99.90
21849;DHT22;11089;49.852;19.700;2022-11-14T04:48:39;3.40;99.90
21849;DHT22;11089;49.852;19.700;2022-11-14T04:51:40;3.50;99.90
21849;DHT22;11089;49.852;19.700;2022-11-14T04:54:41;3.50;99.90
21849;DHT22;11089;49.852;19.700;2022-11-14T04:57:41;3.40;99.90
21849;DHT22;11089;49.852;19.700;2022-11-14T05:00:42;3.50;99.90
21849;DHT22;11089;49.852;19.700;2022-11-14T05:03:43;3.30;99.90
21849;DHT22;11089;49.852;19.700;2022-11-14T05:06:44;3.20;99.90
21849;DHT22;11089;49.852;19.700;2022-11-14T05:09:45;3.20;99.90
21849;DHT22;11089;49.852;19.700;2022-11-14T05:12:46;3.20;99.90
21849;DHT22;11089;49.852;19.700;2022-11-14T05:15:47;3.30;99.90
21849;DHT22;11089;49.852;19.700;2022-11-14T05:18:48;3.30;99.90
21849;DHT22;11089;49.852;19.700;2022-11-14T05:21:49;3.40;99.90
21849;DHT22;11089;49.852;19.700;2022-11-14T05:24:50;3.40;99.90
21849;DHT22;11089;49.852;19.700;2022-11-14T05:27:51;3.40;99.90
21849;DHT22;11089;49.852;19.700;2022-11-14T05:30:52;3.40;99.90
21849;DHT22;11089;49.852;19.700;2022-11-14T05:33:53;3.50;99.90
21849;DHT22;11089;49.852;19.700;2022-11-14T05:36:54;3.50;99.90
21849;DHT22;11089;49.852;19.700;2022-11-14T05:39:55;3.30;99.90
21849;DHT22;11089;49.852;19.700;2022-11-14T05:42:56;3.40;99.90
21849;DHT22;11089;49.852;19.700;2022-11-14T05:46:05;3.30;99.90
21849;DHT22;11089;49.852;19.700;2022-11-14T05:49:06;3.20;99.90
21849;DHT22;11089;49.852;19.700;2022-11-14T05:52:07;3.30;99.90
21849;DHT22;11089;49.852;19.700;2022-11-14T05:55:08;3.20;99.90
21849;DHT22;11089;49.852;19.700;2022-11-14T05:58:09;3.10;99.90
21849;DHT22;11089;49.852;19.700;2022-11-14T06:01:15;3.20;99.90
21849;DHT22;11089;49.852;19.700;2022-11-14T06:04:16;3.20;99.90
21849;DHT22;11089;49.852;19.700;2022-11-14T06:07:17;3.20;99.90
21849;DHT22;11089;49.852;19.700;2022-11-14T06:10:18;3.20;99.90
21849;DHT22;11089;49.852;19.700;2022-11-14T06:13:19;3.40;99.90
21849;DHT22;11089;49.852;19.700;2022-11-14T06:16:20;3.40;99.90
21849;DHT22;11089;49.852;19.700;2022-11-14T06:19:21;3.30;99.90
21849;DHT22;11089;49.852;19.700;2022-11-14T06:22:22;3.30;99.90
21849;DHT22;11089;49.852;19.700;2022-11-14T06:25:23;3.30;99.90
21849;DHT22;11089;49.852;19.700;2022-11-14T06:28:24;3.30;99.90
21849;DHT22;11089;49.852;19.700;2022-11-14T06:31:25;3.30;99.90
21849;DHT22;11089;49.852;19.700;2022-11-14T06:34:27;3.20;99.90
21849;DHT22;11089;49.852;19.700;2022-11-14T06:37:28;3.30;99.90
21849;DHT22;11089;49.852;19.700;2022-11-14T06:40:29;3.20;99.90
21849;DHT22;11089;49.852;19.700;2022-11-14T06:43:32;3.20;99.90
21849;DHT22;11089;49.852;19.700;2022-11-14T06:46:33;3.20;99.90
21849;DHT22;11089;49.852;19.700;2022-11-14T06:49:34;3.30;99.90
21849;DHT22;11089;49.852;19.700;2022-11-14T06:52:35;3.30;99.90
21849;DHT22;11089;49.852;19.700;2022-11-14T06:55:36;3.30;99.90
21849;DHT22;11089;49.852;19.700;2022-11-14T06:58:39;3.10;99.90
21849;DHT22;11089;49.852;19.700;2022-11-14T07:01:41;3.10;99.90
21849;DHT22;11089;49.852;19.700;2022-11-14T07:04:42;3.20;99.90
21849;DHT22;11089;49.852;19.700;2022-11-14T07:07:43;3.10;99.90
21849;DHT22;11089;49.852;19.700;2022-11-14T07:10:44;3.20;99.90
21849;DHT22;11089;49.852;19.700;2022-11-14T07:13:45;3.30;99.90
21849;DHT22;11089;49.852;19.700;2022-11-14T07:16:46;3.50;99.90
21849;DHT22;11089;49.852;19.700;2022-11-14T07:19:47;3.50;99.90
21849;DHT22;11089;49.852;19.700;2022-11-14T07:22:48;3.60;99.90
21849;DHT22;11089;49.852;19.700;2022-11-14T07:25:49;3.80;99.90
21849;DHT22;11089;49.852;19.700;2022-11-14T07:28:50;3.80;99.90
21849;DHT22;11089;49.852;19.700;2022-11-14T07:31:51;3.70;99.90
21849;DHT22;11089;49.852;19.700;2022-11-14T07:34:52;3.70;99.90
21849;DHT22;11089;49.852;19.700;2022-11-14T07:38:00;3.70;99.90
21849;DHT22;11089;49.852;19.700;2022-11-14T07:41:09;3.70;99.90
21849;DHT22;11089;49.852;19.700;2022-11-14T07:44:11;3.80;99.90
21849;DHT22;11089;49.852;19.700;2022-11-14T07:47:12;3.90;99.90
21849;DHT22;11089;49.852;19.700;2022-11-14T07:50:13;4.00;99.90
21849;DHT22;11089;49.852;19.700;2022-11-14T07:53:13;4.00;99.90
21849;DHT22;11089;49.852;19.700;2022-11-14T07:56:16;4.10;99.90
21849;DHT22;11089;49.852;19.700;2022-11-14T07:59:17;4.30;99.90
21849;DHT22;11089;49.852;19.700;2022-11-14T08:02:18;4.30;99.90
21849;DHT22;11089;49.852;19.700;2022-11-14T08:05:19;4.40;99.90
21849;DHT22;11089;49.852;19.700;2022-11-14T08:08:20;4.40;99.90
21849;DHT22;11089;49.852;19.700;2022-11-14T08:11:21;4.40;99.90
21849;DHT22;11089;49.852;19.700;2022-11-14T08:14:41;4.40;99.90
21849;DHT22;11089;49.852;19.700;2022-11-14T08:17:42;4.60;99.90
21849;DHT22;11089;49.852;19.700;2022-11-14T08:20:43;4.50;99.90
21849;DHT22;11089;49.852;19.700;2022-11-14T08:23:44;4.40;99.90
21849;DHT22;11089;49.852;19.700;2022-11-14T08:26:45;4.40;99.90
21849;DHT22;11089;49.852;19.700;2022-11-14T08:29:46;4.50;99.90
21849;DHT22;11089;49.852;19.700;2022-11-14T08:32:47;4.40;99.90
21849;DHT22;11089;49.852;19.700;2022-11-14T08:35:48;4.40;99.90
21849;DHT22;11089;49.852;19.700;2022-11-14T08:38:49;4.70;99.90
21849;DHT22;11089;49.852;19.700;2022-11-14T08:41:50;4.80;99.90
21849;DHT22;11089;49.852;19.700;2022-11-14T08:44:51;4.90;99.90
21849;DHT22;11089;49.852;19.700;2022-11-14T08:47:52;5.00;99.90
21849;DHT22;11089;49.852;19.700;2022-11-14T08:50:53;5.00;99.90
21849;DHT22;11089;49.852;19.700;2022-11-14T08:53:54;5.00;99.90
21849;DHT22;11089;49.852;19.700;2022-11-14T08:56:55;4.90;99.90
21849;DHT22;11089;49.852;19.700;2022-11-14T08:59:56;5.00;99.90
21849;DHT22;11089;49.852;19.700;2022-11-14T09:02:57;5.20;99.90
21849;DHT22;11089;49.852;19.700;2022-11-14T09:05:59;5.30;99.90
21849;DHT22;11089;49.852;19.700;2022-11-14T09:09:00;5.40;99.90
21849;DHT22;11089;49.852;19.700;2022-11-14T09:12:00;5.50;99.90
21849;DHT22;11089;49.852;19.700;2022-11-14T09:15:01;5.60;99.90
21849;DHT22;11089;49.852;19.700;2022-11-14T09:18:03;5.70;99.90
21849;DHT22;11089;49.852;19.700;2022-11-14T09:21:06;5.80;99.90
21849;DHT22;11089;49.852;19.700;2022-11-14T09:24:07;5.70;99.90
21849;DHT22;11089;49.852;19.700;2022-11-14T09:27:08;5.70;99.90
21849;DHT22;11089;49.852;19.700;2022-11-14T09:30:09;5.70;99.90
21849;DHT22;11089;49.852;19.700;2022-11-14T09:33:11;5.70;99.90
21849;DHT22;11089;49.852;19.700;2022-11-14T09:36:12;5.70;99.90
21849;DHT22;11089;49.852;19.700;2022-11-14T09:39:18;5.80;99.90
21849;DHT22;11089;49.852;19.700;2022-11-14T09:45:27;5.90;99.90
21849;DHT22;11089;49.852;19.700;2022-11-14T09:48:29;6.00;99.90
21849;DHT22;11089;49.852;19.700;2022-11-14T09:51:42;5.90;99.90
21849;DHT22;11089;49.852;19.700;2022-11-14T09:54:55;5.90;99.90
21849;DHT22;11089;49.852;19.700;2022-11-14T09:57:56;6.10;99.90
21849;DHT22;11089;49.852;19.700;2022-11-14T10:01:04;6.20;99.90
21849;DHT22;11089;49.852;19.700;2022-11-14T10:04:39;6.20;99.90
21849;DHT22;11089;49.852;19.700;2022-11-14T10:08:04;6.30;99.90
21849;DHT22;11089;49.852;19.700;2022-11-14T10:11:32;6.40;99.90
21849;DHT22;11089;49.852;19.700;2022-11-14T10:35:02;6.50;99.90
21849;DHT22;11089;49.852;19.700;2022-11-14T10:38:21;6.50;99.90
21849;DHT22;11089;49.852;19.700;2022-11-14T10:41:26;6.30;99.90
21849;DHT22;11089;49.852;19.700;2022-11-14T10:44:36;6.50;99.90
21849;DHT22;11089;49.852;19.700;2022-11-14T10:47:45;6.50;99.90
21849;DHT22;11089;49.852;19.700;2022-11-14T10:57:21;6.70;99.90
21849;DHT22;11089;49.852;19.700;2022-11-14T11:00:22;6.80;99.90
21849;DHT22;11089;49.852;19.700;2022-11-14T11:03:40;6.80;99.90
21849;DHT22;11089;49.852;19.700;2022-11-14T11:06:42;6.80;99.90
21849;DHT22;11089;49.852;19.700;2022-11-14T11:09:50;6.80;99.90
21849;DHT22;11089;49.852;19.700;2022-11-14T11:13:13;7.00;99.90
21849;DHT22;11089;49.852;19.700;2022-11-14T11:16:28;7.10;99.90
21849;DHT22;11089;49.852;19.700;2022-11-14T11:19:29;7.20;99.90
21849;DHT22;11089;49.852;19.700;2022-11-14T11:22:37;7.20;99.90
21849;DHT22;11089;49.852;19.700;2022-11-14T11:25:39;7.30;99.90
21849;DHT22;11089;49.852;19.700;2022-11-14T11:28:40;7.30;99.90
21849;DHT22;11089;49.852;19.700;2022-11-14T11:31:55;7.30;99.90
21849;DHT22;11089;49.852;19.700;2022-11-14T11:34:56;7.30;99.90
21849;DHT22;11089;49.852;19.700;2022-11-14T11:38:01;7.20;99.90
21849;DHT22;11089;49.852;19.700;2022-11-14T11:41:26;7.10;99.90
21849;DHT22;11089;49.852;19.700;2022-11-14T11:44:43;7.20;99.90
21849;DHT22;11089;49.852;19.700;2022-11-14T11:51:05;7.30;99.90
21849;DHT22;11089;49.852;19.700;2022-11-14T11:54:15;7.20;99.90
21849;DHT22;11089;49.852;19.700;2022-11-14T11:57:18;7.20;99.90
21849;DHT22;11089;49.852;19.700;2022-11-14T12:00:23;7.20;99.90
21849;DHT22;11089;49.852;19.700;2022-11-14T12:03:25;7.20;99.90
21849;DHT22;11089;49.852;19.700;2022-11-14T12:06:28;7.20;99.90
21849;DHT22;11089;49.852;19.700;2022-11-14T12:09:39;7.20;99.90
21849;DHT22;11089;49.852;19.700;2022-11-14T12:26:31;7.40;99.90
21849;DHT22;11089;49.852;19.700;2022-11-14T12:36:03;7.40;99.90
21849;DHT22;11089;49.852;19.700;2022-11-14T12:39:18;7.30;99.90
21849;DHT22;11089;49.852;19.700;2022-11-14T12:42:21;7.30;99.90
21849;DHT22;11089;49.852;19.700;2022-11-14T12:48:52;7.20;99.90
21849;DHT22;11089;49.852;19.700;2022-11-14T12:51:53;7.20;99.90
21849;DHT22;11089;49.852;19.700;2022-11-14T12:54:54;7.20;99.90
21849;DHT22;11089;49.852;19.700;2022-11-14T12:58:10;7.30;99.90
21849;DHT22;11089;49.852;19.700;2022-11-14T13:04:44;7.30;98.40
21849;DHT22;11089;49.852;19.700;2022-11-14T13:14:52;7.20;99.90
21849;DHT22;11089;49.852;19.700;2022-11-14T13:18:28;7.20;99.90
21849;DHT22;11089;49.852;19.700;2022-11-14T13:25:21;7.10;99.90
21849;DHT22;11089;49.852;19.700;2022-11-14T13:31:49;7.00;99.90
21849;DHT22;11089;49.852;19.700;2022-11-14T13:35:32;6.90;99.90
21849;DHT22;11089;49.852;19.700;2022-11-14T13:51:32;6.70;99.90
21849;DHT22;11089;49.852;19.700;2022-11-14T13:54:34;6.80;99.90
21849;DHT22;11089;49.852;19.700;2022-11-14T14:01:41;6.70;99.90
21849;DHT22;11089;49.852;19.700;2022-11-14T14:05:01;6.80;99.90
21849;DHT22;11089;49.852;19.700;2022-11-14T14:08:20;6.90;99.90
21849;DHT22;11089;49.852;19.700;2022-11-14T14:18:22;6.90;99.90
21849;DHT22;11089;49.852;19.700;2022-11-14T14:28:57;6.60;99.90
21849;DHT22;11089;49.852;19.700;2022-11-14T14:31:36;6.50;99.90
21849;DHT22;11089;49.852;19.700;2022-11-14T14:34:37;6.30;99.90
21849;DHT22;11089;49.852;19.700;2022-11-14T14:37:50;6.30;99.90
21849;DHT22;11089;49.852;19.700;2022-11-14T14:40:54;6.50;99.90
21849;DHT22;11089;49.852;19.700;2022-11-14T14:43:55;6.50;99.90
21849;DHT22;11089;49.852;19.700;2022-11-14T14:46:57;6.50;99.90
21849;DHT22;11089;49.852;19.700;2022-11-14T14:50:04;6.40;99.90
21849;DHT22;11089;49.852;19.700;2022-11-14T14:53:07;6.40;99.90
21849;DHT22;11089;49.852;19.700;2022-11-14T14:56:21;6.30;99.90
21849;DHT22;11089;49.852;19.700;2022-11-14T14:59:25;6.10;99.90
21849;DHT22;11089;49.852;19.700;2022-11-14T15:02:27;6.10;99.90
21849;DHT22;11089;49.852;19.700;2022-11-14T15:05:28;6.10;99.90
21849;DHT22;11089;49.852;19.700;2022-11-14T15:08:34;6.00;99.90
21849;DHT22;11089;49.852;19.700;2022-11-14T15:11:43;5.90;99.90
21849;DHT22;11089;49.852;19.700;2022-11-14T15:14:46;5.90;99.90
21849;DHT22;11089;49.852;19.700;2022-11-14T15:17:49;6.00;99.90
21849;DHT22;11089;49.852;19.700;2022-11-14T15:21:08;5.80;99.90
21849;DHT22;11089;49.852;19.700;2022-11-14T15:24:16;5.70;99.90
21849;DHT22;11089;49.852;19.700;2022-11-14T15:27:19;5.70;99.90
21849;DHT22;11089;49.852;19.700;2022-11-14T15:30:23;5.70;99.90
21849;DHT22;11089;49.852;19.700;2022-11-14T15:33:29;5.90;99.90
21849;DHT22;11089;49.852;19.700;2022-11-14T15:36:31;5.90;99.90
21849;DHT22;11089;49.852;19.700;2022-11-14T15:39:32;5.90;99.90
21849;DHT22;11089;49.852;19.700;2022-11-14T15:42:33;6.00;99.90
21849;DHT22;11089;49.852;19.700;2022-11-14T15:45:40;6.00;99.90
21849;DHT22;11089;49.852;19.700;2022-11-14T15:48:41;6.00;99.90
21849;DHT22;11089;49.852;19.700;2022-11-14T15:51:45;6.00;99.90
21849;DHT22;11089;49.852;19.700;2022-11-14T15:54:46;5.90;99.90
21849;DHT22;11089;49.852;19.700;2022-11-14T15:57:47;5.90;99.90
21849;DHT22;11089;49.852;19.700;2022-11-14T16:00:51;5.90;99.90
21849;DHT22;11089;49.852;19.700;2022-11-14T16:03:52;5.80;99.90
21849;DHT22;11089;49.852;19.700;2022-11-14T16:06:53;5.60;99.90
21849;DHT22;11089;49.852;19.700;2022-11-14T16:09:54;5.80;99.90
21849;DHT22;11089;49.852;19.700;2022-11-14T16:12:55;5.80;99.90
21849;DHT22;11089;49.852;19.700;2022-11-14T16:15:56;5.80;99.90
21849;DHT22;11089;49.852;19.700;2022-11-14T16:18:57;5.90;99.90
21849;DHT22;11089;49.852;19.700;2022-11-14T16:22:01;5.80;99.90
21849;DHT22;11089;49.852;19.700;2022-11-14T16:25:02;5.90;99.90
21849;DHT22;11089;49.852;19.700;2022-11-14T16:28:03;5.80;99.90
21849;DHT22;11089;49.852;19.700;2022-11-14T16:31:13;5.70;99.90
21849;DHT22;11089;49.852;19.700;2022-11-14T16:34:19;5.80;99.90
21849;DHT22;11089;49.852;19.700;2022-11-14T16:37:20;5.80;99.90
21849;DHT22;11089;49.852;19.700;2022-11-14T16:40:26;5.80;99.90
21849;DHT22;11089;49.852;19.700;2022-11-14T16:43:27;5.80;99.90
21849;DHT22;11089;49.852;19.700;2022-11-14T16:46:28;5.80;99.90
21849;DHT22;11089;49.852;19.700;2022-11-14T16:49:29;5.60;99.90
21849;DHT22;11089;49.852;19.700;2022-11-14T16:52:30;5.80;99.90
21849;DHT22;11089;49.852;19.700;2022-11-14T16:55:31;5.80;99.90
21849;DHT22;11089;49.852;19.700;2022-11-14T16:58:31;5.80;99.90
21849;DHT22;11089;49.852;19.700;2022-11-14T17:01:32;5.70;99.90
21849;DHT22;11089;49.852;19.700;2022-11-14T17:04:33;5.80;99.90
21849;DHT22;11089;49.852;19.700;2022-11-14T17:07:34;5.80;99.90
21849;DHT22;11089;49.852;19.700;2022-11-14T17:10:42;5.70;99.90
21849;DHT22;11089;49.852;19.700;2022-11-14T17:13:43;5.60;99.90
21849;DHT22;11089;49.852;19.700;2022-11-14T17:16:45;5.50;99.90
21849;DHT22;11089;49.852;19.700;2022-11-14T17:19:46;5.50;99.90
21849;DHT22;11089;49.852;19.700;2022-11-14T17:22:47;5.40;99.90
21849;DHT22;11089;49.852;19.700;2022-11-14T17:25:48;5.30;99.90
21849;DHT22;11089;49.852;19.700;2022-11-14T17:28:49;5.20;99.90
21849;DHT22;11089;49.852;19.700;2022-11-14T17:31:50;5.20;99.90
21849;DHT22;11089;49.852;19.700;2022-11-14T17:34:51;5.30;99.90
21849;DHT22;11089;49.852;19.700;2022-11-14T17:37:52;5.40;99.90
21849;DHT22;11089;49.852;19.700;2022-11-14T17:40:56;5.40;99.90
21849;DHT22;11089;49.852;19.700;2022-11-14T17:43:58;5.40;99.90
21849;DHT22;11089;49.852;19.700;2022-11-14T17:47:02;5.30;99.90
21849;DHT22;11089;49.852;19.700;2022-11-14T17:50:03;5.30;99.90
21849;DHT22;11089;49.852;19.700;2022-11-14T17:53:04;5.10;99.90
21849;DHT22;11089;49.852;19.700;2022-11-14T17:56:06;5.20;99.90
21849;DHT22;11089;49.852;19.700;2022-11-14T17:59:07;5.20;99.90
21849;DHT22;11089;49.852;19.700;2022-11-14T18:02:12;5.10;99.90
21849;DHT22;11089;49.852;19.700;2022-11-14T18:05:13;5.00;99.90
21849;DHT22;11089;49.852;19.700;2022-11-14T18:08:14;4.90;99.90
21849;DHT22;11089;49.852;19.700;2022-11-14T18:11:16;4.80;99.90
21849;DHT22;11089;49.852;19.700;2022-11-14T18:14:17;4.90;99.90
21849;DHT22;11089;49.852;19.700;2022-11-14T18:17:18;4.90;99.90
21849;DHT22;11089;49.852;19.700;2022-11-14T18:20:19;4.80;99.90
21849;DHT22;11089;49.852;19.700;2022-11-14T18:23:20;4.80;99.90
21849;DHT22;11089;49.852;19.700;2022-11-14T18:26:23;5.00;99.90
21849;DHT22;11089;49.852;19.700;2022-11-14T18:29:27;5.00;99.90
21849;DHT22;11089;49.852;19.700;2022-11-14T18:32:28;5.10;99.90
21849;DHT22;11089;49.852;19.700;2022-11-14T18:35:29;5.20;99.90
21849;DHT22;11089;49.852;19.700;2022-11-14T18:38:31;5.20;99.90
21849;DHT22;11089;49.852;19.700;2022-11-14T18:41:35;5.10;99.90
21849;DHT22;11089;49.852;19.700;2022-11-14T18:44:36;5.10;99.90
21849;DHT22;11089;49.852;19.700;2022-11-14T18:47:37;5.00;99.90
21849;DHT22;11089;49.852;19.700;2022-11-14T18:50:38;4.80;99.90
21849;DHT22;11089;49.852;19.700;2022-11-14T18:53:39;4.80;99.90
21849;DHT22;11089;49.852;19.700;2022-11-14T18:56:40;4.80;99.90
21849;DHT22;11089;49.852;19.700;2022-11-14T18:59:41;4.80;99.90
21849;DHT22;11089;49.852;19.700;2022-11-14T19:02:42;4.80;99.90
21849;DHT22;11089;49.852;19.700;2022-11-14T19:05:43;4.80;99.90
21849;DHT22;11089;49.852;19.700;2022-11-14T19:08:44;4.80;99.90
21849;DHT22;11089;49.852;19.700;2022-11-14T19:11:45;4.80;99.90
21849;DHT22;11089;49.852;19.700;2022-11-14T19:14:59;4.70;99.90
21849;DHT22;11089;49.852;19.700;2022-11-14T19:18:01;4.70;99.90
21849;DHT22;11089;49.852;19.700;2022-11-14T19:21:03;4.60;99.90
21849;DHT22;11089;49.852;19.700;2022-11-14T19:24:04;4.60;99.90
21849;DHT22;11089;49.852;19.700;2022-11-14T19:27:05;4.60;99.90
21849;DHT22;11089;49.852;19.700;2022-11-14T19:30:07;4.60;99.90
21849;DHT22;11089;49.852;19.700;2022-11-14T19:33:08;4.50;99.90
21849;DHT22;11089;49.852;19.700;2022-11-14T19:36:17;4.50;99.90
21849;DHT22;11089;49.852;19.700;2022-11-14T19:39:18;4.60;99.90
21849;DHT22;11089;49.852;19.700;2022-11-14T19:42:19;4.60;99.90
21849;DHT22;11089;49.852;19.700;2022-11-14T19:45:20;4.50;99.90
21849;DHT22;11089;49.852;19.700;2022-11-14T19:48:21;4.50;99.90
21849;DHT22;11089;49.852;19.700;2022-11-14T19:51:22;4.40;99.90
21849;DHT22;11089;49.852;19.700;2022-11-14T19:54:24;4.40;99.90
21849;DHT22;11089;49.852;19.700;2022-11-14T19:57:25;4.50;99.90
21849;DHT22;11089;49.852;19.700;2022-11-14T20:00:29;4.50;99.90
21849;DHT22;11089;49.852;19.700;2022-11-14T20:03:30;4.60;99.90
21849;DHT22;11089;49.852;19.700;2022-11-14T20:06:34;4.40;99.90
21849;DHT22;11089;49.852;19.700;2022-11-14T20:09:35;4.50;99.90
21849;DHT22;11089;49.852;19.700;2022-11-14T20:12:36;4.50;99.90
21849;DHT22;11089;49.852;19.700;2022-11-14T20:15:36;4.40;99.90
21849;DHT22;11089;49.852;19.700;2022-11-14T20:18:38;4.40;99.90
21849;DHT22;11089;49.852;19.700;2022-11-14T20:21:40;4.20;99.90
21849;DHT22;11089;49.852;19.700;2022-11-14T20:24:42;4.10;99.90
21849;DHT22;11089;49.852;19.700;2022-11-14T20:27:43;4.10;99.90
21849;DHT22;11089;49.852;19.700;2022-11-14T20:30:44;4.20;99.90
21849;DHT22;11089;49.852;19.700;2022-11-14T20:33:46;4.10;99.90
21849;DHT22;11089;49.852;19.700;2022-11-14T20:36:47;4.30;99.90
21849;DHT22;11089;49.852;19.700;2022-11-14T20:39:48;4.10;99.90
21849;DHT22;11089;49.852;19.700;2022-11-14T20:42:49;4.20;99.90
21849;DHT22;11089;49.852;19.700;2022-11-14T20:45:54;4.30;99.90
21849;DHT22;11089;49.852;19.700;2022-11-14T20:48:55;4.30;99.90
21849;DHT22;11089;49.852;19.700;2022-11-14T20:51:56;4.30;99.90
21849;DHT22;11089;49.852;19.700;2022-11-14T20:54:57;4.30;99.90
21849;DHT22;11089;49.852;19.700;2022-11-14T20:57:59;4.30;99.90
21849;DHT22;11089;49.852;19.700;2022-11-14T21:01:01;4.30;99.90